sensor_id;sensor_type;location;lat;lon;timestamp;temperature;humidity
47114;DHT22;32867;51.556;6.832;2023-04-20T00:04:44;10.60;54.40
47114;DHT22;32867;51.556;6.832;2023-04-20T00:09:46;10.60;54.20
47114;DHT22;32867;51.556;6.832;2023-04-20T00:14:46;10.70;54.30
47114;DHT22;32867;51.556;6.832;2023-04-20T00:19:47;10.60;54.30
47114;DHT22;32867;51.556;6.832;2023-04-20T00:24:47;10.70;54.30
47114;DHT22;32867;51.556;6.832;2023-04-20T00:29:48;10.70;54.40
47114;DHT22;32867;51.556;6.832;2023-04-20T00:34:49;10.70;54.30
47114;DHT22;32867;51.556;6.832;2023-04-20T00:39:51;10.70;54.20
47114;DHT22;32867;51.556;6.832;2023-04-20T00:44:51;10.70;54.20
47114;DHT22;32867;51.556;6.832;2023-04-20T00:49:53;10.60;54.20
47114;DHT22;32867;51.556;6.832;2023-04-20T00:54:54;10.40;54.60
47114;DHT22;32867;51.556;6.832;2023-04-20T00:59:55;10.30;54.80
47114;DHT22;32867;51.556;6.832;2023-04-20T01:04:56;10.20;55.40
47114;DHT22;32867;51.556;6.832;2023-04-20T01:09:57;10.20;55.60
47114;DHT22;32867;51.556;6.832;2023-04-20T01:14:57;10.20;56.30
47114;DHT22;32867;51.556;6.832;2023-04-20T01:19:58;10.30;56.40
47114;DHT22;32867;51.556;6.832;2023-04-20T01:25:01;10.30;56.70
47114;DHT22;32867;51.556;6.832;2023-04-20T01:30:02;10.20;57.20
47114;DHT22;32867;51.556;6.832;2023-04-20T01:35:04;10.10;57.80
47114;DHT22;32867;51.556;6.832;2023-04-20T01:40:07;10.20;57.60
47114;DHT22;32867;51.556;6.832;2023-04-20T01:45:08;10.20;57.60
47114;DHT22;32867;51.556;6.832;2023-04-20T01:50:09;10.20;57.60
47114;DHT22;32867;51.556;6.832;2023-04-20T01:55:10;10.20;57.30
47114;DHT22;32867;51.556;6.832;2023-04-20T02:00:11;10.20;57.50
47114;DHT22;32867;51.556;6.832;2023-04-20T02:05:15;10.10;57.40
47114;DHT22;32867;51.556;6.832;2023-04-20T02:10:16;10.10;57.60
47114;DHT22;32867;51.556;6.832;2023-04-20T02:15:19;10.10;57.90
47114;DHT22;32867;51.556;6.832;2023-04-20T02:20:19;10.20;58.00
47114;DHT22;32867;51.556;6.832;2023-04-20T02:25:20;10.10;57.90
47114;DHT22;32867;51.556;6.832;2023-04-20T02:30:21;10.20;58.10
47114;DHT22;32867;51.556;6.832;2023-04-20T02:35:22;10.20;58.10
47114;DHT22;32867;51.556;6.832;2023-04-20T02:40:22;10.20;58.30
47114;DHT22;32867;51.556;6.832;2023-04-20T02:45:23;10.20;58.40
47114;DHT22;32867;51.556;6.832;2023-04-20T02:50:24;10.00;59.00
47114;DHT22;32867;51.556;6.832;2023-04-20T02:55:49;10.10;59.00
47114;DHT22;32867;51.556;6.832;2023-04-20T03:01:02;10.00;59.20
47114;DHT22;32867;51.556;6.832;2023-04-20T03:06:04;10.00;59.60
47114;DHT22;32867;51.556;6.832;2023-04-20T03:11:05;10.00;59.80
47114;DHT22;32867;51.556;6.832;2023-04-20T03:16:06;10.00;60.40
47114;DHT22;32867;51.556;6.832;2023-04-20T03:21:15;10.00;60.20
47114;DHT22;32867;51.556;6.832;2023-04-20T03:26:17;10.00;60.60
47114;DHT22;32867;51.556;6.832;2023-04-20T03:31:38;9.90;60.70
47114;DHT22;32867;51.556;6.832;2023-04-20T03:36:39;10.00;61.00
47114;DHT22;32867;51.556;6.832;2023-04-20T03:41:40;10.00;60.80
47114;DHT22;32867;51.556;6.832;2023-04-20T03:46:41;10.10;61.00
47114;DHT22;32867;51.556;6.832;2023-04-20T03:51:42;10.00;61.60
47114;DHT22;32867;51.556;6.832;2023-04-20T03:56:43;10.10;61.70
47114;DHT22;32867;51.556;6.832;2023-04-20T04:01:46;10.00;62.20
47114;DHT22;32867;51.556;6.832;2023-04-20T04:06:47;10.00;62.90
47114;DHT22;32867;51.556;6.832;2023-04-20T04:11:47;9.90;63.80
47114;DHT22;32867;51.556;6.832;2023-04-20T04:16:48;9.90;64.90
47114;DHT22;32867;51.556;6.832;2023-04-20T04:21:49;9.80;66.00
47114;DHT22;32867;51.556;6.832;2023-04-20T04:26:50;9.80;67.00
47114;DHT22;32867;51.556;6.832;2023-04-20T04:31:53;9.70;68.00
47114;DHT22;32867;51.556;6.832;2023-04-20T04:36:54;9.70;68.80
47114;DHT22;32867;51.556;6.832;2023-04-20T04:42:02;9.60;71.30
47114;DHT22;32867;51.556;6.832;2023-04-20T04:47:12;9.70;71.50
47114;DHT22;32867;51.556;6.832;2023-04-20T04:52:14;9.70;72.40
47114;DHT22;32867;51.556;6.832;2023-04-20T04:57:14;9.60;72.90
47114;DHT22;32867;51.556;6.832;2023-04-20T05:02:15;9.50;74.70
47114;DHT22;32867;51.556;6.832;2023-04-20T05:07:16;9.60;75.30
47114;DHT22;32867;51.556;6.832;2023-04-20T05:12:16;9.70;75.50
47114;DHT22;32867;51.556;6.832;2023-04-20T05:17:18;9.70;76.30
47114;DHT22;32867;51.556;6.832;2023-04-20T05:22:19;9.60;77.30
47114;DHT22;32867;51.556;6.832;2023-04-20T05:27:20;9.50;78.70
47114;DHT22;32867;51.556;6.832;2023-04-20T05:32:20;9.40;80.30
47114;DHT22;32867;51.556;6.832;2023-04-20T05:37:21;9.30;82.10
47114;DHT22;32867;51.556;6.832;2023-04-20T05:42:22;9.50;81.70
47114;DHT22;32867;51.556;6.832;2023-04-20T05:47:22;9.40;82.40
47114;DHT22;32867;51.556;6.832;2023-04-20T05:52:23;9.30;83.60
47114;DHT22;32867;51.556;6.832;2023-04-20T05:57:24;9.30;83.90
47114;DHT22;32867;51.556;6.832;2023-04-20T06:02:24;9.30;84.10
47114;DHT22;32867;51.556;6.832;2023-04-20T06:07:25;9.40;84.70
47114;DHT22;32867;51.556;6.832;2023-04-20T06:12:29;9.50;84.50
47114;DHT22;32867;51.556;6.832;2023-04-20T06:17:29;9.70;84.70
47114;DHT22;32867;51.556;6.832;2023-04-20T06:22:30;9.90;83.50
47114;DHT22;32867;51.556;6.832;2023-04-20T06:27:31;10.00;83.70
47114;DHT22;32867;51.556;6.832;2023-04-20T06:32:31;10.00;83.70
47114;DHT22;32867;51.556;6.832;2023-04-20T06:37:33;9.90;84.80
47114;DHT22;32867;51.556;6.832;2023-04-20T06:42:34;10.00;85.60
47114;DHT22;32867;51.556;6.832;2023-04-20T06:47:36;9.60;86.60
47114;DHT22;32867;51.556;6.832;2023-04-20T06:52:38;9.30;90.30
47114;DHT22;32867;51.556;6.832;2023-04-20T06:57:39;9.50;89.40
47114;DHT22;32867;51.556;6.832;2023-04-20T07:02:48;9.50;90.30
47114;DHT22;32867;51.556;6.832;2023-04-20T07:07:49;9.70;90.20
47114;DHT22;32867;51.556;6.832;2023-04-20T07:12:50;9.60;90.10
47114;DHT22;32867;51.556;6.832;2023-04-20T07:17:51;9.70;89.90
47114;DHT22;32867;51.556;6.832;2023-04-20T07:22:51;9.70;90.40
47114;DHT22;32867;51.556;6.832;2023-04-20T07:27:52;9.60;90.20
47114;DHT22;32867;51.556;6.832;2023-04-20T07:32:53;9.60;90.40
47114;DHT22;32867;51.556;6.832;2023-04-20T07:37:53;9.70;90.30
47114;DHT22;32867;51.556;6.832;2023-04-20T07:42:54;9.70;91.00
47114;DHT22;32867;51.556;6.832;2023-04-20T07:47:55;10.10;90.20
47114;DHT22;32867;51.556;6.832;2023-04-20T07:52:56;10.20;89.60
47114;DHT22;32867;51.556;6.832;2023-04-20T07:57:57;10.40;89.30
47114;DHT22;32867;51.556;6.832;2023-04-20T08:02:57;10.20;90.10
47114;DHT22;32867;51.556;6.832;2023-04-20T08:07:58;10.30;89.30
47114;DHT22;32867;51.556;6.832;2023-04-20T08:12:59;10.10;89.50
47114;DHT22;32867;51.556;6.832;2023-04-20T08:17:59;10.40;89.50
47114;DHT22;32867;51.556;6.832;2023-04-20T08:23:00;10.70;88.20
47114;DHT22;32867;51.556;6.832;2023-04-20T08:28:01;10.80;87.70
47114;DHT22;32867;51.556;6.832;2023-04-20T08:33:01;11.10;86.50
47114;DHT22;32867;51.556;6.832;2023-04-20T08:38:02;11.10;86.30
47114;DHT22;32867;51.556;6.832;2023-04-20T08:43:03;11.00;86.50
47114;DHT22;32867;51.556;6.832;2023-04-20T08:48:06;11.20;85.60
47114;DHT22;32867;51.556;6.832;2023-04-20T08:53:07;11.10;86.30
47114;DHT22;32867;51.556;6.832;2023-04-20T08:58:09;10.90;86.70
47114;DHT22;32867;51.556;6.832;2023-04-20T09:03:09;10.60;87.30
47114;DHT22;32867;51.556;6.832;2023-04-20T09:08:10;10.60;87.40
47114;DHT22;32867;51.556;6.832;2023-04-20T09:13:21;10.50;87.50
47114;DHT22;32867;51.556;6.832;2023-04-20T09:18:22;10.80;87.40
47114;DHT22;32867;51.556;6.832;2023-04-20T09:23:25;10.70;87.20
47114;DHT22;32867;51.556;6.832;2023-04-20T09:28:35;10.50;87.60
47114;DHT22;32867;51.556;6.832;2023-04-20T09:33:38;10.70;87.40
47114;DHT22;32867;51.556;6.832;2023-04-20T09:38:39;10.70;87.80
47114;DHT22;32867;51.556;6.832;2023-04-20T09:43:40;10.60;88.10
47114;DHT22;32867;51.556;6.832;2023-04-20T09:48:41;10.40;89.50
47114;DHT22;32867;51.556;6.832;2023-04-20T09:53:42;10.30;90.20
47114;DHT22;32867;51.556;6.832;2023-04-20T09:58:44;10.30;90.20
47114;DHT22;32867;51.556;6.832;2023-04-20T10:03:46;10.80;89.10
47114;DHT22;32867;51.556;6.832;2023-04-20T10:08:46;10.90;90.00
47114;DHT22;32867;51.556;6.832;2023-04-20T10:13:48;10.80;92.20
47114;DHT22;32867;51.556;6.832;2023-04-20T10:19:00;11.30;93.20
47114;DHT22;32867;51.556;6.832;2023-04-20T10:24:02;12.20;94.10
47114;DHT22;32867;51.556;6.832;2023-04-20T10:29:03;12.80;92.00
47114;DHT22;32867;51.556;6.832;2023-04-20T10:34:04;13.20;90.90
47114;DHT22;32867;51.556;6.832;2023-04-20T10:39:19;13.30;87.20
47114;DHT22;32867;51.556;6.832;2023-04-20T10:44:21;12.90;85.80
47114;DHT22;32867;51.556;6.832;2023-04-20T10:49:26;13.20;86.00
47114;DHT22;32867;51.556;6.832;2023-04-20T10:54:39;13.30;84.00
47114;DHT22;32867;51.556;6.832;2023-04-20T10:59:39;13.30;84.20
47114;DHT22;32867;51.556;6.832;2023-04-20T11:04:41;13.60;84.10
47114;DHT22;32867;51.556;6.832;2023-04-20T11:09:42;13.40;82.10
47114;DHT22;32867;51.556;6.832;2023-04-20T11:14:54;12.80;83.20
47114;DHT22;32867;51.556;6.832;2023-04-20T11:20:06;12.70;84.50
47114;DHT22;32867;51.556;6.832;2023-04-20T11:25:10;13.20;83.80
47114;DHT22;32867;51.556;6.832;2023-04-20T11:30:11;13.20;82.20
47114;DHT22;32867;51.556;6.832;2023-04-20T11:35:11;13.60;82.50
47114;DHT22;32867;51.556;6.832;2023-04-20T11:40:13;13.90;80.60
47114;DHT22;32867;51.556;6.832;2023-04-20T11:45:14;14.40;78.40
47114;DHT22;32867;51.556;6.832;2023-04-20T11:50:15;14.30;77.70
47114;DHT22;32867;51.556;6.832;2023-04-20T11:55:15;14.60;79.90
47114;DHT22;32867;51.556;6.832;2023-04-20T12:00:16;15.00;76.40
47114;DHT22;32867;51.556;6.832;2023-04-20T12:05:17;15.10;75.30
47114;DHT22;32867;51.556;6.832;2023-04-20T12:10:18;15.70;75.30
47114;DHT22;32867;51.556;6.832;2023-04-20T12:15:18;15.60;73.30
47114;DHT22;32867;51.556;6.832;2023-04-20T12:20:19;15.90;71.60
47114;DHT22;32867;51.556;6.832;2023-04-20T12:25:19;15.70;71.10
47114;DHT22;32867;51.556;6.832;2023-04-20T12:30:20;15.90;74.50
47114;DHT22;32867;51.556;6.832;2023-04-20T12:35:21;19.10;66.70
47114;DHT22;32867;51.556;6.832;2023-04-20T12:40:22;19.10;62.10
47114;DHT22;32867;51.556;6.832;2023-04-20T12:45:23;17.50;63.30
47114;DHT22;32867;51.556;6.832;2023-04-20T12:50:24;20.20;65.10
47114;DHT22;32867;51.556;6.832;2023-04-20T12:55:25;23.30;56.90
47114;DHT22;32867;51.556;6.832;2023-04-20T13:00:25;22.60;54.50
47114;DHT22;32867;51.556;6.832;2023-04-20T13:05:26;22.70;56.80
47114;DHT22;32867;51.556;6.832;2023-04-20T13:10:27;20.70;54.30
47114;DHT22;32867;51.556;6.832;2023-04-20T13:15:27;18.80;55.80
47114;DHT22;32867;51.556;6.832;2023-04-20T13:20:29;17.50;58.30
47114;DHT22;32867;51.556;6.832;2023-04-20T13:25:31;17.70;58.20
47114;DHT22;32867;51.556;6.832;2023-04-20T13:30:32;20.30;57.70
47114;DHT22;32867;51.556;6.832;2023-04-20T13:35:33;18.60;56.50
47114;DHT22;32867;51.556;6.832;2023-04-20T13:40:34;17.70;58.10
47114;DHT22;32867;51.556;6.832;2023-04-20T13:45:35;17.30;59.30
47114;DHT22;32867;51.556;6.832;2023-04-20T13:50:35;17.90;59.90
47114;DHT22;32867;51.556;6.832;2023-04-20T13:55:36;21.00;58.80
47114;DHT22;32867;51.556;6.832;2023-04-20T14:00:37;22.80;53.40
47114;DHT22;32867;51.556;6.832;2023-04-20T14:05:37;23.70;52.50
47114;DHT22;32867;51.556;6.832;2023-04-20T14:10:39;22.70;53.50
47114;DHT22;32867;51.556;6.832;2023-04-20T14:15:39;23.60;52.50
47114;DHT22;32867;51.556;6.832;2023-04-20T14:20:41;23.50;50.10
47114;DHT22;32867;51.556;6.832;2023-04-20T14:25:41;22.80;50.80
47114;DHT22;32867;51.556;6.832;2023-04-20T14:30:43;21.90;52.50
47114;DHT22;32867;51.556;6.832;2023-04-20T14:35:45;22.70;52.30
47114;DHT22;32867;51.556;6.832;2023-04-20T14:40:46;22.60;52.10
47114;DHT22;32867;51.556;6.832;2023-04-20T14:45:47;21.40;51.90
47114;DHT22;32867;51.556;6.832;2023-04-20T14:50:49;21.10;51.80
47114;DHT22;32867;51.556;6.832;2023-04-20T14:55:50;20.50;52.80
47114;DHT22;32867;51.556;6.832;2023-04-20T15:00:51;20.30;52.20
47114;DHT22;32867;51.556;6.832;2023-04-20T15:05:59;19.80;51.30
47114;DHT22;32867;51.556;6.832;2023-04-20T15:11:00;18.40;53.30
47114;DHT22;32867;51.556;6.832;2023-04-20T15:16:01;18.60;54.70
47114;DHT22;32867;51.556;6.832;2023-04-20T15:21:02;19.70;53.50
47114;DHT22;32867;51.556;6.832;2023-04-20T15:26:02;19.00;53.40
47114;DHT22;32867;51.556;6.832;2023-04-20T15:31:06;19.70;53.60
47114;DHT22;32867;51.556;6.832;2023-04-20T15:36:07;18.80;53.20
47114;DHT22;32867;51.556;6.832;2023-04-20T15:41:08;18.20;53.30
47114;DHT22;32867;51.556;6.832;2023-04-20T15:46:08;17.90;54.30
47114;DHT22;32867;51.556;6.832;2023-04-20T15:51:09;17.50;55.30
47114;DHT22;32867;51.556;6.832;2023-04-20T15:56:09;17.60;55.20
47114;DHT22;32867;51.556;6.832;2023-04-20T16:01:11;18.20;55.00
47114;DHT22;32867;51.556;6.832;2023-04-20T16:06:12;18.30;55.20
47114;DHT22;32867;51.556;6.832;2023-04-20T16:11:13;18.70;55.80
47114;DHT22;32867;51.556;6.832;2023-04-20T16:16:13;18.50;54.40
47114;DHT22;32867;51.556;6.832;2023-04-20T16:21:14;17.20;55.80
47114;DHT22;32867;51.556;6.832;2023-04-20T16:26:15;16.80;58.10
47114;DHT22;32867;51.556;6.832;2023-04-20T16:31:16;16.60;59.30
47114;DHT22;32867;51.556;6.832;2023-04-20T16:36:16;17.20;58.80
47114;DHT22;32867;51.556;6.832;2023-04-20T16:41:17;17.60;59.10
47114;DHT22;32867;51.556;6.832;2023-04-20T16:46:18;17.50;59.20
47114;DHT22;32867;51.556;6.832;2023-04-20T16:51:21;18.00;58.30
47114;DHT22;32867;51.556;6.832;2023-04-20T16:56:22;17.90;57.80
47114;DHT22;32867;51.556;6.832;2023-04-20T17:01:22;17.90;58.50
47114;DHT22;32867;51.556;6.832;2023-04-20T17:06:23;18.50;57.70
47114;DHT22;32867;51.556;6.832;2023-04-20T17:11:24;18.50;57.40
47114;DHT22;32867;51.556;6.832;2023-04-20T17:16:25;18.50;57.50
47114;DHT22;32867;51.556;6.832;2023-04-20T17:21:26;18.30;57.90
47114;DHT22;32867;51.556;6.832;2023-04-20T17:26:28;17.30;58.90
47114;DHT22;32867;51.556;6.832;2023-04-20T17:31:29;16.60;60.70
47114;DHT22;32867;51.556;6.832;2023-04-20T17:36:32;16.40;61.00
47114;DHT22;32867;51.556;6.832;2023-04-20T17:41:33;16.00;61.70
47114;DHT22;32867;51.556;6.832;2023-04-20T17:46:35;15.70;62.70
47114;DHT22;32867;51.556;6.832;2023-04-20T17:51:35;15.00;65.50
47114;DHT22;32867;51.556;6.832;2023-04-20T17:56:36;14.10;66.50
47114;DHT22;32867;51.556;6.832;2023-04-20T18:01:37;13.60;67.10
47114;DHT22;32867;51.556;6.832;2023-04-20T18:06:37;13.50;68.30
47114;DHT22;32867;51.556;6.832;2023-04-20T18:11:38;13.60;68.30
47114;DHT22;32867;51.556;6.832;2023-04-20T18:16:39;13.40;70.60
47114;DHT22;32867;51.556;6.832;2023-04-20T18:21:40;12.90;72.20
47114;DHT22;32867;51.556;6.832;2023-04-20T18:26:41;12.60;75.00
47114;DHT22;32867;51.556;6.832;2023-04-20T18:31:42;12.80;76.00
47114;DHT22;32867;51.556;6.832;2023-04-20T18:36:44;13.10;75.80
47114;DHT22;32867;51.556;6.832;2023-04-20T18:41:45;13.30;74.80
47114;DHT22;32867;51.556;6.832;2023-04-20T18:46:46;13.40;75.40
47114;DHT22;32867;51.556;6.832;2023-04-20T18:51:46;13.40;76.00
47114;DHT22;32867;51.556;6.832;2023-04-20T18:56:47;13.20;77.00
47114;DHT22;32867;51.556;6.832;2023-04-20T19:01:49;13.40;76.20
47114;DHT22;32867;51.556;6.832;2023-04-20T19:06:50;13.50;75.70
47114;DHT22;32867;51.556;6.832;2023-04-20T19:11:51;13.50;76.10
47114;DHT22;32867;51.556;6.832;2023-04-20T19:16:52;13.40;76.60
47114;DHT22;32867;51.556;6.832;2023-04-20T19:21:52;13.40;76.40
47114;DHT22;32867;51.556;6.832;2023-04-20T19:26:53;13.40;76.80
47114;DHT22;32867;51.556;6.832;2023-04-20T19:31:54;13.30;77.20
47114;DHT22;32867;51.556;6.832;2023-04-20T19:36:54;13.20;77.60
47114;DHT22;32867;51.556;6.832;2023-04-20T19:41:55;13.00;78.70
47114;DHT22;32867;51.556;6.832;2023-04-20T19:46:56;12.90;79.20
47114;DHT22;32867;51.556;6.832;2023-04-20T19:51:57;12.90;79.10
47114;DHT22;32867;51.556;6.832;2023-04-20T19:56:58;12.90;79.00
47114;DHT22;32867;51.556;6.832;2023-04-20T20:01:58;12.70;80.60
47114;DHT22;32867;51.556;6.832;2023-04-20T20:06:59;12.60;80.60
47114;DHT22;32867;51.556;6.832;2023-04-20T20:12:00;12.50;81.60
47114;DHT22;32867;51.556;6.832;2023-04-20T20:17:04;12.50;81.50
47114;DHT22;32867;51.556;6.832;2023-04-20T20:22:04;12.30;82.60
47114;DHT22;32867;51.556;6.832;2023-04-20T20:27:05;12.10;84.10
47114;DHT22;32867;51.556;6.832;2023-04-20T20:32:06;12.20;85.60
47114;DHT22;32867;51.556;6.832;2023-04-20T20:37:06;12.30;84.10
47114;DHT22;32867;51.556;6.832;2023-04-20T20:42:09;12.30;84.50
47114;DHT22;32867;51.556;6.832;2023-04-20T20:47:11;12.30;84.50
47114;DHT22;32867;51.556;6.832;2023-04-20T20:52:12;12.20;85.80
47114;DHT22;32867;51.556;6.832;2023-04-20T20:57:12;12.10;86.80
47114;DHT22;32867;51.556;6.832;2023-04-20T21:02:13;12.20;87.90
47114;DHT22;32867;51.556;6.832;2023-04-20T21:07:14;11.90;90.50
47114;DHT22;32867;51.556;6.832;2023-04-20T21:12:14;11.80;92.20
47114;DHT22;32867;51.556;6.832;2023-04-20T21:17:15;11.70;93.10
47114;DHT22;32867;51.556;6.832;2023-04-20T21:22:16;11.80;93.10
47114;DHT22;32867;51.556;6.832;2023-04-20T21:27:16;12.00;92.70
47114;DHT22;32867;51.556;6.832;2023-04-20T21:32:17;11.90;93.60
47114;DHT22;32867;51.556;6.832;2023-04-20T21:37:18;12.00;94.40
47114;DHT22;32867;51.556;6.832;2023-04-20T21:42:18;11.90;93.90
47114;DHT22;32867;51.556;6.832;2023-04-20T21:47:19;12.00;94.10
47114;DHT22;32867;51.556;6.832;2023-04-20T21:52:20;12.00;93.90
47114;DHT22;32867;51.556;6.832;2023-04-20T21:57:20;12.10;94.10
47114;DHT22;32867;51.556;6.832;2023-04-20T22:02:22;12.10;94.20
47114;DHT22;32867;51.556;6.832;2023-04-20T22:07:22;12.10;94.90
47114;DHT22;32867;51.556;6.832;2023-04-20T22:12:23;12.10;95.00
47114;DHT22;32867;51.556;6.832;2023-04-20T22:17:25;12.10;95.40
47114;DHT22;32867;51.556;6.832;2023-04-20T22:22:26;12.10;95.70
47114;DHT22;32867;51.556;6.832;2023-04-20T22:27:26;12.00;96.20
47114;DHT22;32867;51.556;6.832;2023-04-20T22:32:27;11.90;96.90
47114;DHT22;32867;51.556;6.832;2023-04-20T22:37:28;11.90;96.90
47114;DHT22;32867;51.556;6.832;2023-04-20T22:42:28;11.90;97.20
47114;DHT22;32867;51.556;6.832;2023-04-20T22:47:29;12.00;97.50
47114;DHT22;32867;51.556;6.832;2023-04-20T22:52:30;12.00;97.40
47114;DHT22;32867;51.556;6.832;2023-04-20T22:57:31;12.00;97.80
47114;DHT22;32867;51.556;6.832;2023-04-20T23:02:32;11.90;98.30
47114;DHT22;32867;51.556;6.832;2023-04-20T23:07:32;11.80;98.60
47114;DHT22;32867;51.556;6.832;2023-04-20T23:12:33;11.80;98.80
47114;DHT22;32867;51.556;6.832;2023-04-20T23:17:34;11.80;98.90
47114;DHT22;32867;51.556;6.832;2023-04-20T23:22:34;11.80;99.10
47114;DHT22;32867;51.556;6.832;2023-04-20T23:27:35;11.80;99.50
47114;DHT22;32867;51.556;6.832;2023-04-20T23:32:36;11.70;99.80
47114;DHT22;32867;51.556;6.832;2023-04-20T23:37:37;11.60;99.90
47114;DHT22;32867;51.556;6.832;2023-04-20T23:42:38;11.60;99.90
47114;DHT22;32867;51.556;6.832;2023-04-20T23:47:38;11.60;99.90
47114;DHT22;32867;51.556;6.832;2023-04-20T23:52:39;11.60;99.90
47114;DHT22;32867;51.556;6.832;2023-04-20T23:57:40;11.60;99.90
